createdAt,value
2024-05-09T00:00:15.602Z,31.00
2024-05-09T00:02:48.889Z,24.67
2024-05-09T00:05:19.370Z,25.77
2024-05-09T00:07:49.913Z,30.30
2024-05-09T00:10:28.813Z,29.97
2024-05-09T00:13:08.790Z,30.77
2024-05-09T00:15:39.439Z,26.63
2024-05-09T00:18:10.078Z,30.13
2024-05-09T00:20:41.380Z,30.17
2024-05-09T00:23:13.768Z,27.77
2024-05-09T00:25:45.929Z,29.13
2024-05-09T00:28:19.118Z,28.33
2024-05-09T00:30:49.460Z,28.63
2024-05-09T00:33:20.093Z,31.07
2024-05-09T00:35:50.661Z,28.47
2024-05-09T00:38:21.239Z,35.03
2024-05-09T00:40:54.644Z,31.03
2024-05-09T00:43:27.655Z,25.10
2024-05-09T00:45:58.565Z,31.00
2024-05-09T00:48:30.862Z,29.33
2024-05-09T00:51:01.651Z,30.73
2024-05-09T00:53:33.609Z,29.50
2024-05-09T00:56:04.494Z,30.67
2024-05-09T00:58:37.755Z,31.87
2024-05-09T01:01:10.551Z,27.67
2024-05-09T01:03:41.222Z,26.13
2024-05-09T01:06:11.908Z,33.67
2024-05-09T01:08:42.414Z,28.77
2024-05-09T01:11:12.963Z,31.67
2024-05-09T01:13:46.684Z,31.53
2024-05-09T01:16:17.248Z,29.77
2024-05-09T01:18:47.867Z,29.33
2024-05-09T01:21:18.571Z,32.17
2024-05-09T01:23:51.704Z,28.33
2024-05-09T01:26:22.076Z,33.37
2024-05-09T01:28:52.493Z,31.77
2024-05-09T01:31:22.838Z,31.03
2024-05-09T01:33:53.290Z,33.17
2024-05-09T01:36:23.741Z,32.70
2024-05-09T01:38:56.775Z,24.20
2024-05-09T01:41:27.275Z,32.23
2024-05-09T01:43:57.827Z,26.63
2024-05-09T01:46:28.272Z,24.73
2024-05-09T01:48:59.157Z,24.00
2024-05-09T01:51:29.790Z,28.90
2024-05-09T01:54:02.880Z,27.97
2024-05-09T01:56:33.228Z,26.63
2024-05-09T01:59:04.947Z,32.83
2024-05-09T02:01:55.582Z,30.97
2024-05-09T02:04:25.883Z,28.57
2024-05-09T02:06:56.315Z,32.07
2024-05-09T02:09:29.306Z,27.17
2024-05-09T02:11:59.731Z,27.93
2024-05-09T02:14:30.336Z,29.93
2024-05-09T02:17:01.678Z,29.37
2024-05-09T02:19:32.205Z,31.30
2024-05-09T02:22:02.632Z,27.10
2024-05-09T02:24:35.657Z,20.00
2024-05-09T02:27:06.209Z,24.47
2024-05-09T02:29:37.361Z,29.93
2024-05-09T02:32:08.522Z,30.23
2024-05-09T02:34:39.124Z,31.10
2024-05-09T02:37:09.694Z,32.23
2024-05-09T02:39:40.056Z,32.07
2024-05-09T02:42:10.622Z,28.93
2024-05-09T02:44:38.621Z,32.80
2024-05-09T02:47:09.173Z,32.17
2024-05-09T02:49:37.394Z,35.93
2024-05-09T02:52:08.430Z,25.60
2024-05-09T02:54:36.187Z,29.97
2024-05-09T02:57:10.324Z,35.83
2024-05-09T02:59:38.138Z,34.47
2024-05-09T03:02:08.603Z,31.33
2024-05-09T03:04:36.449Z,26.13
2024-05-09T03:07:07.107Z,26.63
2024-05-09T03:09:34.864Z,32.83
2024-05-09T03:12:05.479Z,30.77
2024-05-09T03:14:35.916Z,28.90
2024-05-09T03:17:06.541Z,29.57
2024-05-09T03:19:35.575Z,28.57
2024-05-09T03:22:05.977Z,22.93
2024-05-09T03:24:33.703Z,25.93
2024-05-09T03:27:04.055Z,28.57
2024-05-09T03:29:32.199Z,32.77
2024-05-09T03:32:06.100Z,31.70
2024-05-09T03:34:33.903Z,25.37
2024-05-09T03:37:04.247Z,27.43
2024-05-09T03:39:34.855Z,27.07
2024-05-09T03:42:05.413Z,28.50
2024-05-09T03:44:35.834Z,29.90
2024-05-09T03:47:08.913Z,28.07
2024-05-09T03:49:36.810Z,35.53
2024-05-09T03:52:07.995Z,31.83
2024-05-09T03:54:36.008Z,32.83
2024-05-09T03:57:06.842Z,33.17
2024-05-09T03:59:34.622Z,32.27
2024-05-09T04:02:10.476Z,34.60
2024-05-09T04:04:41.380Z,33.20
2024-05-09T04:07:11.743Z,28.50
2024-05-09T04:09:39.622Z,29.00
2024-05-09T04:12:10.879Z,31.13
2024-05-09T04:14:38.680Z,30.93
2024-05-09T04:17:11.877Z,25.23
2024-05-09T04:19:39.833Z,29.03
2024-05-09T04:22:10.662Z,30.43
2024-05-09T04:24:38.402Z,30.63
2024-05-09T04:27:08.850Z,32.80
2024-05-09T04:29:37.697Z,31.67
2024-05-09T04:32:11.210Z,30.60
2024-05-09T04:34:39.080Z,28.60
2024-05-09T04:37:09.604Z,30.20
2024-05-09T04:39:37.325Z,29.53
2024-05-09T04:42:08.262Z,33.17
2024-05-09T04:44:36.086Z,37.23
2024-05-09T04:47:06.730Z,31.70
2024-05-09T04:49:37.230Z,29.50
2024-05-09T04:52:08.196Z,34.83
2024-05-09T04:54:36.767Z,30.43
2024-05-09T04:57:07.665Z,28.27
2024-05-09T04:59:38.234Z,31.17
2024-05-09T05:02:11.667Z,30.33
2024-05-09T05:04:42.216Z,30.47
2024-05-09T05:07:12.790Z,30.57
2024-05-09T05:09:40.506Z,30.07
2024-05-09T05:12:31.313Z,26.80
2024-05-09T05:14:59.142Z,31.50
2024-05-09T05:17:29.836Z,36.50
2024-05-09T05:20:00.805Z,32.20
2024-05-09T05:22:31.345Z,33.17
2024-05-09T05:24:59.024Z,32.80
2024-05-09T05:27:31.023Z,34.90
2024-05-09T05:29:58.919Z,30.87
2024-05-09T05:32:29.928Z,39.20
2024-05-09T05:35:00.755Z,32.67
2024-05-09T05:37:31.214Z,34.87
2024-05-09T05:39:58.961Z,38.27
2024-05-09T05:42:29.441Z,33.47
2024-05-09T05:44:57.179Z,38.27
2024-05-09T05:47:27.701Z,40.20
2024-05-09T05:49:55.736Z,38.93
2024-05-09T05:52:28.901Z,32.93
2024-05-09T05:54:56.644Z,38.60
2024-05-09T05:57:27.118Z,36.27
2024-05-09T05:59:54.888Z,34.87
2024-05-09T06:02:25.344Z,35.93
2024-05-09T06:04:53.272Z,35.77
2024-05-09T06:07:23.852Z,37.17
2024-05-09T06:09:54.744Z,39.80
2024-05-09T06:12:25.400Z,40.63
2024-05-09T06:14:53.256Z,33.47
2024-05-09T06:17:23.847Z,40.90
2024-05-09T06:19:51.966Z,41.67
2024-05-09T06:22:32.384Z,39.53
2024-05-09T06:25:02.825Z,36.63
2024-05-09T06:27:33.274Z,33.23
2024-05-09T06:30:01.136Z,31.30
2024-05-09T06:32:32.038Z,34.00
2024-05-09T06:35:00.115Z,36.10
2024-05-09T06:37:30.784Z,31.50
2024-05-09T06:39:58.528Z,40.50
2024-05-09T06:42:31.795Z,42.30
2024-05-09T06:44:59.768Z,42.53
2024-05-09T06:47:30.395Z,41.83
2024-05-09T06:49:58.453Z,41.67
2024-05-09T06:52:28.905Z,36.43
2024-05-09T06:54:56.676Z,34.67
2024-05-09T06:57:27.166Z,40.07
2024-05-09T07:00:00.830Z,33.03
2024-05-09T07:02:32.192Z,36.40
2024-05-09T07:05:00.050Z,33.77
2024-05-09T07:07:30.822Z,34.37
2024-05-09T07:10:01.324Z,32.67
2024-05-09T07:12:29.214Z,36.37
2024-05-09T07:15:02.359Z,35.20
2024-05-09T07:17:30.292Z,30.73
2024-05-09T07:20:00.949Z,38.57
2024-05-09T07:22:29.735Z,26.60
2024-05-09T07:25:00.054Z,30.83
2024-05-09T07:27:28.277Z,27.33
2024-05-09T07:30:01.328Z,31.50
2024-05-09T07:32:29.163Z,29.63
2024-05-09T07:34:59.780Z,25.73
2024-05-09T07:37:27.552Z,30.23
2024-05-09T07:39:58.190Z,29.77
2024-05-09T07:42:25.920Z,23.23
2024-05-09T07:44:58.731Z,24.93
2024-05-09T07:48:57.650Z,27.13
2024-05-09T07:55:28.535Z,35.40
2024-05-09T07:57:59.077Z,25.00
2024-05-09T08:00:31.131Z,25.00
2024-05-09T08:03:05.279Z,24.50
2024-05-09T08:05:33.249Z,24.93
2024-05-09T08:08:03.796Z,32.50
2024-05-09T08:10:31.762Z,27.30
2024-05-09T08:13:02.174Z,24.20
2024-05-09T08:15:30.031Z,24.10
2024-05-09T08:18:00.909Z,24.57
2024-05-09T08:20:35.128Z,24.43
2024-05-09T08:23:06.088Z,24.83
2024-05-09T08:25:34.032Z,24.53
2024-05-09T08:28:06.484Z,26.93
2024-05-09T08:30:37.285Z,25.37
2024-05-09T08:33:09.249Z,24.23
2024-05-09T08:35:39.915Z,25.20
2024-05-09T08:38:11.985Z,28.57
2024-05-09T08:40:39.905Z,25.57
2024-05-09T08:43:12.830Z,25.93
2024-05-09T08:45:44.258Z,25.07
2024-05-09T08:48:16.852Z,26.20
2024-05-09T08:50:49.695Z,26.00
2024-05-09T08:53:20.257Z,30.87
2024-05-09T08:55:51.896Z,27.67
2024-05-09T08:58:22.384Z,27.33
2024-05-09T09:00:51.592Z,25.80
2024-05-09T09:03:25.172Z,27.20
2024-05-09T09:06:03.003Z,28.53
2024-05-09T09:08:33.780Z,26.20
2024-05-09T09:11:01.782Z,27.67
2024-05-09T09:13:32.496Z,27.27
2024-05-09T09:16:01.218Z,25.53
2024-05-09T09:18:33.206Z,25.80
2024-05-09T09:21:04.006Z,25.37
2024-05-09T09:23:34.562Z,29.60
2024-05-09T09:26:02.610Z,27.00
2024-05-09T09:28:32.959Z,28.53
2024-05-09T09:31:04.268Z,28.00
2024-05-09T09:33:36.330Z,26.60
2024-05-09T09:36:09.017Z,25.80
2024-05-09T09:38:40.867Z,27.43
2024-05-09T09:41:10.944Z,24.87
2024-05-09T09:43:43.127Z,28.53
2024-05-09T09:46:13.284Z,28.63
2024-05-09T09:48:45.588Z,26.77
2024-05-09T09:51:16.555Z,26.37
2024-05-09T09:53:47.720Z,24.73
2024-05-09T09:56:18.088Z,26.30
2024-05-09T09:58:49.429Z,26.30
2024-05-09T10:01:17.438Z,27.30
2024-05-09T10:03:48.269Z,24.87
2024-05-09T10:06:19.704Z,26.80
2024-05-09T10:08:51.630Z,25.50
2024-05-09T10:11:20.672Z,23.83
2024-05-09T10:13:51.091Z,25.90
2024-05-09T10:16:21.594Z,28.00
2024-05-09T10:18:52.953Z,27.20
2024-05-09T10:21:23.684Z,26.93
2024-05-09T10:24:01.630Z,27.27
2024-05-09T10:26:33.359Z,26.47
2024-05-09T10:29:04.757Z,24.90
2024-05-09T10:31:32.707Z,25.87
2024-05-09T10:34:03.927Z,28.10
2024-05-09T10:36:42.785Z,27.50
2024-05-09T10:39:13.849Z,25.20
2024-05-09T10:41:41.593Z,26.50
2024-05-09T10:44:14.543Z,27.03
2024-05-09T10:46:42.597Z,24.73
2024-05-09T10:49:13.594Z,27.20
2024-05-09T10:51:45.400Z,28.10
2024-05-09T10:54:15.847Z,33.10
2024-05-09T10:56:43.731Z,28.43
2024-05-09T10:59:15.796Z,27.50
2024-05-09T11:01:43.781Z,27.70
2024-05-09T11:04:14.525Z,26.37
2024-05-09T11:06:46.888Z,27.27
2024-05-09T11:09:17.859Z,26.97
2024-05-09T11:11:45.764Z,28.23
2024-05-09T11:14:17.517Z,26.27
2024-05-09T11:16:47.427Z,29.33
2024-05-09T11:19:19.833Z,29.67
2024-05-09T11:21:54.021Z,29.17
2024-05-09T11:24:25.169Z,27.83
2024-05-09T11:26:53.007Z,27.67
2024-05-09T11:29:23.539Z,29.33
2024-05-09T11:31:51.443Z,29.40
2024-05-09T11:34:21.944Z,28.87
2024-05-09T11:36:49.899Z,27.03
2024-05-09T11:39:22.952Z,29.03
2024-05-09T11:41:50.851Z,30.03
2024-05-09T11:44:21.318Z,31.07
2024-05-09T11:46:49.257Z,30.17
2024-05-09T11:49:19.901Z,28.70
2024-05-09T11:51:47.845Z,30.83
2024-05-09T11:54:19.161Z,29.30
2024-05-09T11:56:51.764Z,28.23
2024-05-09T11:59:22.284Z,29.63
2024-05-09T12:01:50.348Z,33.20
2024-05-09T12:04:21.125Z,30.77
2024-05-09T12:06:49.000Z,29.30
2024-05-09T12:09:19.515Z,30.83
2024-05-09T12:11:49.968Z,28.77
2024-05-09T12:14:20.585Z,29.20
2024-05-09T12:16:48.616Z,29.23
2024-05-09T12:19:19.638Z,30.60
2024-05-09T12:21:47.655Z,28.93
2024-05-09T12:24:18.813Z,30.50
2024-05-09T12:26:49.343Z,30.23
2024-05-09T12:29:20.238Z,29.13
2024-05-09T12:31:48.045Z,28.93
2024-05-09T12:34:18.610Z,29.53
2024-05-09T12:36:46.657Z,28.30
2024-05-09T12:39:17.148Z,29.57
2024-05-09T12:41:45.118Z,28.37
2024-05-09T12:44:18.142Z,27.20
2024-05-09T12:46:46.091Z,28.17
2024-05-09T12:49:18.813Z,28.20
2024-05-09T12:51:47.382Z,29.07
2024-05-09T12:54:17.909Z,29.63
2024-05-09T12:56:45.679Z,29.97
2024-05-09T12:59:18.831Z,26.23
2024-05-09T13:01:46.783Z,31.77
2024-05-09T13:04:17.500Z,28.70
2024-05-09T13:06:45.454Z,29.27
2024-05-09T13:09:15.974Z,28.13
2024-05-09T13:11:44.114Z,31.77
2024-05-09T13:14:14.553Z,29.10
2024-05-09T13:16:45.013Z,30.17
2024-05-09T13:19:15.560Z,30.10
2024-05-09T13:21:43.417Z,30.57
2024-05-09T13:24:13.982Z,29.77
2024-05-09T13:26:42.017Z,29.90
2024-05-09T13:29:12.512Z,29.27
2024-05-09T13:31:40.400Z,31.70
2024-05-09T13:34:13.669Z,30.73
2024-05-09T13:36:41.722Z,30.73
2024-05-09T13:39:12.440Z,27.63
2024-05-09T13:41:40.406Z,29.70
2024-05-09T13:44:11.688Z,29.77
2024-05-09T13:46:39.495Z,29.17
2024-05-09T13:49:12.550Z,28.70
2024-05-09T13:51:43.466Z,27.33
2024-05-09T13:54:14.144Z,28.60
2024-05-09T13:56:42.196Z,31.43
2024-05-09T13:59:12.840Z,30.17
2024-05-09T14:01:40.725Z,31.73
2024-05-09T14:04:11.732Z,29.93
2024-05-09T14:06:39.639Z,32.13
2024-05-09T14:09:12.640Z,31.47
2024-05-09T14:11:40.506Z,31.57
2024-05-09T14:14:10.978Z,28.80
2024-05-09T14:16:39.689Z,33.83
2024-05-09T14:19:10.338Z,31.83
2024-05-09T14:21:38.159Z,33.27
2024-05-09T14:24:08.883Z,31.10
2024-05-09T14:26:39.333Z,32.70
2024-05-09T14:29:09.979Z,31.87
2024-05-09T14:31:40.393Z,32.50
2024-05-09T14:34:08.513Z,31.83
2024-05-09T14:36:39.339Z,32.80
2024-05-09T14:39:07.312Z,33.33
2024-05-09T14:41:39.102Z,32.67
2024-05-09T14:44:09.539Z,31.90
2024-05-09T14:46:39.952Z,33.83
2024-05-09T14:49:09.905Z,33.07
2024-05-09T14:51:42.129Z,35.33
2024-05-09T14:54:09.929Z,34.23
2024-05-09T14:56:40.498Z,33.30
2024-05-09T14:59:11.178Z,33.57
2024-05-09T15:01:41.829Z,34.53
2024-05-09T15:04:09.734Z,33.50
2024-05-09T15:06:42.760Z,33.73
2024-05-09T15:09:11.109Z,31.97
2024-05-09T15:11:41.834Z,34.70
2024-05-09T15:14:12.767Z,31.97
2024-05-09T15:16:43.231Z,32.13
2024-05-09T15:19:11.133Z,32.60
2024-05-09T15:21:41.925Z,33.43
2024-05-09T15:24:09.699Z,34.73
2024-05-09T15:26:37.832Z,32.53
2024-05-09T15:29:08.370Z,32.63
2024-05-09T15:31:38.818Z,36.00
2024-05-09T15:34:09.276Z,34.53
2024-05-09T15:36:38.686Z,36.87
2024-05-09T15:39:10.151Z,34.60
2024-05-09T15:41:37.847Z,38.80
2024-05-09T15:44:08.258Z,32.03
2024-05-09T15:46:38.823Z,33.30
2024-05-09T15:49:09.386Z,31.13
2024-05-09T15:51:37.470Z,32.53
2024-05-09T15:54:07.928Z,31.47
2024-05-09T15:56:35.776Z,34.13
2024-05-09T15:59:06.241Z,32.67
2024-05-09T16:01:34.124Z,31.90
2024-05-09T16:04:07.546Z,32.30
2024-05-09T16:06:36.083Z,33.07
2024-05-09T16:09:06.661Z,31.67
2024-05-09T16:11:34.570Z,33.27
2024-05-09T16:14:05.132Z,33.43
2024-05-09T16:16:33.169Z,32.50
2024-05-09T16:19:06.258Z,33.73
2024-05-09T16:21:34.069Z,29.53
2024-05-09T16:24:04.762Z,33.17
2024-05-09T16:26:32.937Z,34.17
2024-05-09T16:29:03.352Z,34.67
2024-05-09T16:31:31.218Z,33.20
2024-05-09T16:34:01.870Z,33.73
2024-05-09T16:36:32.862Z,34.07
2024-05-09T16:39:03.282Z,33.67
2024-05-09T16:41:31.048Z,35.13
2024-05-09T16:44:01.845Z,35.80
2024-05-09T16:46:29.929Z,34.80
2024-05-09T16:49:00.579Z,36.77
2024-05-09T16:51:28.476Z,36.83
2024-05-09T16:54:01.731Z,36.33
2024-05-09T16:56:29.592Z,35.43
2024-05-09T16:59:00.038Z,37.10
2024-05-09T17:01:28.750Z,34.67
2024-05-09T17:03:59.481Z,36.50
2024-05-09T17:06:27.541Z,36.43
2024-05-09T17:09:07.893Z,38.50
2024-05-09T17:11:44.468Z,37.60
2024-05-09T17:14:15.038Z,39.07
2024-05-09T17:16:45.651Z,35.67
2024-05-09T17:19:16.234Z,35.30
2024-05-09T17:21:43.954Z,36.67
2024-05-09T17:24:14.337Z,37.20
2024-05-09T17:26:45.833Z,34.90
2024-05-09T17:29:16.320Z,37.27
2024-05-09T17:31:44.283Z,37.47
2024-05-09T17:34:14.920Z,38.30
2024-05-09T17:36:42.788Z,39.47
2024-05-09T17:39:13.657Z,33.57
2024-05-09T17:41:46.999Z,38.57
2024-05-09T17:44:14.806Z,34.97
2024-05-09T17:46:45.461Z,34.70
2024-05-09T17:49:13.339Z,35.20
2024-05-09T17:51:54.316Z,38.20
2024-05-09T17:54:22.129Z,35.63
2024-05-09T17:56:56.459Z,37.53
2024-05-09T17:59:24.215Z,35.90
2024-05-09T18:01:54.878Z,38.43
2024-05-09T18:04:22.768Z,39.80
2024-05-09T18:06:53.246Z,41.40
2024-05-09T18:09:21.189Z,38.37
2024-05-09T18:11:51.800Z,35.90
2024-05-09T18:14:22.234Z,34.13
2024-05-09T18:16:52.717Z,39.23
2024-05-09T18:19:20.537Z,38.80
2024-05-09T18:21:51.735Z,37.40
2024-05-09T18:24:22.216Z,34.93
2024-05-09T18:26:53.779Z,36.27
2024-05-09T18:29:24.432Z,37.13
2024-05-09T18:31:55.229Z,35.10
2024-05-09T18:34:23.315Z,37.13
2024-05-09T18:36:53.856Z,36.37
2024-05-09T18:39:21.690Z,39.90
2024-05-09T18:41:52.067Z,39.67
2024-05-09T18:44:19.960Z,40.37
2024-05-09T18:46:53.263Z,38.07
2024-05-09T18:49:21.223Z,38.83
2024-05-09T18:51:51.842Z,42.03
2024-05-09T18:54:19.711Z,38.67
2024-05-09T18:56:50.130Z,44.67
2024-05-09T18:59:18.383Z,49.87
2024-05-09T19:01:48.909Z,50.00
2024-05-09T19:04:19.726Z,48.97
2024-05-09T19:06:50.841Z,39.80
2024-05-09T19:09:18.809Z,38.60
2024-05-09T19:11:49.256Z,43.97
2024-05-09T19:14:17.080Z,38.83
2024-05-09T19:16:47.548Z,40.37
2024-05-09T19:19:15.415Z,34.47
2024-05-09T19:21:48.506Z,45.53
2024-05-09T19:24:17.308Z,45.63
2024-05-09T19:26:48.167Z,43.83
2024-05-09T19:29:16.090Z,49.60
2024-05-09T19:31:46.582Z,44.90
2024-05-09T19:34:14.511Z,39.73
2024-05-09T19:36:45.073Z,44.73
2024-05-09T19:39:15.578Z,45.13
2024-05-09T19:41:46.067Z,39.50
2024-05-09T19:44:13.794Z,42.37
2024-05-09T19:46:44.194Z,41.17
2024-05-09T19:49:12.299Z,42.90
2024-05-09T19:51:42.989Z,43.93
2024-05-09T19:54:10.887Z,40.00
2024-05-09T19:56:45.253Z,44.33
2024-05-09T19:59:13.087Z,42.43
2024-05-09T20:01:43.821Z,43.67
2024-05-09T20:04:11.897Z,42.50
2024-05-09T20:06:44.268Z,41.17
2024-05-09T20:09:12.071Z,46.53
2024-05-09T20:11:45.067Z,40.60
2024-05-09T20:14:12.905Z,39.07
2024-05-09T20:16:43.294Z,42.07
2024-05-09T20:19:11.247Z,41.13
2024-05-09T20:21:45.007Z,41.60
2024-05-09T20:24:12.898Z,49.53
2024-05-09T20:26:45.951Z,50.33
2024-05-09T20:29:13.757Z,46.57
2024-05-09T20:31:44.127Z,41.60
2024-05-09T20:34:12.013Z,47.53
2024-05-09T20:36:42.543Z,43.40
2024-05-09T20:39:10.455Z,43.80
2024-05-09T20:41:46.473Z,44.83
2024-05-09T20:44:14.283Z,44.10
2024-05-09T20:46:45.289Z,47.83
2024-05-09T20:49:13.208Z,44.53
2024-05-09T20:51:43.878Z,47.83
2024-05-09T20:54:11.652Z,45.93
2024-05-09T20:56:42.466Z,50.67
2024-05-09T20:59:13.254Z,46.17
2024-05-09T21:01:49.229Z,45.20
2024-05-09T21:04:20.622Z,45.27
2024-05-09T21:06:51.470Z,48.03
2024-05-09T21:09:19.493Z,47.30
2024-05-09T21:11:52.847Z,48.93
2024-05-09T21:14:25.945Z,45.53
2024-05-09T21:16:53.992Z,37.40
2024-05-09T21:19:26.638Z,49.73
2024-05-09T21:21:54.451Z,48.40
2024-05-09T21:24:26.172Z,43.47
2024-05-09T21:26:54.687Z,44.80
2024-05-09T21:29:28.024Z,48.70
2024-05-09T21:31:56.016Z,44.33
2024-05-09T21:34:26.611Z,48.47
2024-05-09T21:36:54.659Z,47.37
2024-05-09T21:39:27.295Z,47.90
2024-05-09T21:41:55.155Z,48.20
2024-05-09T21:44:28.249Z,48.00
2024-05-09T21:46:56.317Z,45.17
2024-05-09T21:49:26.757Z,45.77
2024-05-09T21:51:54.603Z,51.23
2024-05-09T21:54:25.221Z,45.90
2024-05-09T21:56:52.981Z,54.97
2024-05-09T21:59:23.446Z,51.33
2024-05-09T22:01:54.039Z,52.10
2024-05-09T22:04:24.527Z,49.07
2024-05-09T22:06:52.311Z,49.97
2024-05-09T22:09:22.779Z,53.87
2024-05-09T22:11:52.935Z,56.17
2024-05-09T22:14:24.250Z,51.27
2024-05-09T22:16:54.707Z,53.07
2024-05-09T22:19:25.311Z,54.20
2024-05-09T22:21:53.984Z,47.17
2024-05-09T22:24:24.505Z,44.87
2024-05-09T22:26:53.676Z,53.83
2024-05-09T22:29:24.053Z,50.00
2024-05-09T22:31:54.530Z,50.87
2024-05-09T22:34:25.466Z,45.30
2024-05-09T22:36:53.841Z,50.20
2024-05-09T22:39:24.917Z,50.80
2024-05-09T22:41:52.698Z,48.83
2024-05-09T22:44:23.071Z,57.67
2024-05-09T22:46:53.546Z,55.13
2024-05-09T22:49:24.128Z,54.70
2024-05-09T22:51:51.930Z,46.97
2024-05-09T22:54:22.447Z,50.90
2024-05-09T22:56:50.271Z,50.87
2024-05-09T22:59:20.943Z,51.57
2024-05-09T23:01:48.802Z,53.40
2024-05-09T23:04:22.003Z,53.37
2024-05-09T23:06:51.587Z,47.00
2024-05-09T23:09:21.948Z,52.07
2024-05-09T23:11:49.925Z,51.53
2024-05-09T23:14:20.320Z,52.00
2024-05-09T23:16:48.103Z,52.77
2024-05-09T23:19:21.160Z,50.97
2024-05-09T23:21:48.932Z,49.03
2024-05-09T23:24:19.304Z,46.17
2024-05-09T23:26:47.015Z,50.50
2024-05-09T23:29:17.491Z,47.50
2024-05-09T23:31:45.300Z,51.50
2024-05-09T23:34:17.174Z,44.07
2024-05-09T23:36:47.734Z,45.73
2024-05-09T23:39:18.188Z,47.20
2024-05-09T23:41:45.942Z,52.67
2024-05-09T23:44:16.322Z,46.37
2024-05-09T23:46:44.112Z,48.07
2024-05-09T23:49:14.512Z,48.23
2024-05-09T23:51:42.290Z,46.50
2024-05-09T23:54:15.301Z,51.20
2024-05-09T23:56:43.132Z,51.63
2024-05-09T23:59:13.530Z,46.17
